createdAt,value
2022-08-02T00:02:29.068Z,100.00
2022-08-02T00:07:37.741Z,100.00
2022-08-02T00:12:44.137Z,100.00
2022-08-02T00:17:48.573Z,100.00
2022-08-02T00:22:53.667Z,100.00
2022-08-02T00:27:57.126Z,100.00
2022-08-02T00:33:02.587Z,100.00
2022-08-02T00:38:07.443Z,100.00
2022-08-02T00:43:12.906Z,100.00
2022-08-02T00:48:16.389Z,100.00
2022-08-02T00:53:21.215Z,100.00
2022-08-02T00:58:24.970Z,100.00
2022-08-02T01:03:28.894Z,100.00
2022-08-02T01:08:33.783Z,100.00
2022-08-02T01:13:37.868Z,100.00
2022-08-02T01:18:46.634Z,100.00
2022-08-02T01:24:05.197Z,100.00
2022-08-02T01:29:14.402Z,100.00
2022-08-02T01:34:21.891Z,100.00
2022-08-02T01:39:32.377Z,100.00
2022-08-02T01:44:39.804Z,100.00
2022-08-02T01:49:46.121Z,100.00
2022-08-02T01:54:53.405Z,100.00
2022-08-02T02:00:01.668Z,100.00
2022-08-02T02:05:08.127Z,100.00
2022-08-02T02:10:15.052Z,100.00
2022-08-02T02:15:20.615Z,100.00
2022-08-02T02:20:24.712Z,100.00
2022-08-02T02:25:36.152Z,100.00
2022-08-02T02:30:50.346Z,100.00
2022-08-02T02:35:54.570Z,100.00
2022-08-02T02:41:01.886Z,100.00
2022-08-02T02:46:08.715Z,100.00
2022-08-02T02:51:14.261Z,100.00
2022-08-02T02:56:19.056Z,100.00
2022-08-02T03:01:55.248Z,100.00
2022-08-02T03:06:54.566Z,100.00
2022-08-02T03:11:58.595Z,100.00
2022-08-02T03:17:03.479Z,100.00
2022-08-02T03:22:06.971Z,100.00
2022-08-02T03:27:10.477Z,100.00
2022-08-02T03:32:15.421Z,100.00
2022-08-02T03:37:19.823Z,100.00
2022-08-02T03:42:24.091Z,100.00
2022-08-02T03:47:29.456Z,100.00
2022-08-02T03:52:34.710Z,100.00
2022-08-02T03:57:38.937Z,100.00
2022-08-02T04:02:43.852Z,100.00
2022-08-02T04:08:33.818Z,100.00
2022-08-02T04:13:12.600Z,100.00
2022-08-02T04:18:23.454Z,100.00
2022-08-02T04:23:28.648Z,100.00
2022-08-02T04:28:36.474Z,100.00
2022-08-02T04:33:41.410Z,100.00
2022-08-02T04:38:44.923Z,100.00
2022-08-02T04:43:48.380Z,100.00
2022-08-02T04:48:53.238Z,100.00
2022-08-02T04:54:03.602Z,100.00
2022-08-02T04:59:12.637Z,100.00
2022-08-02T05:04:17.460Z,100.00
2022-08-02T05:09:21.067Z,100.00
2022-08-02T05:14:24.580Z,100.00
2022-08-02T05:19:29.441Z,100.00
2022-08-02T05:24:32.922Z,100.00
2022-08-02T05:29:36.422Z,100.00
2022-08-02T05:34:41.313Z,100.00
2022-08-02T05:39:55.169Z,100.00
2022-08-02T05:44:59.935Z,100.00
2022-08-02T05:50:05.431Z,100.00
2022-08-02T05:55:14.251Z,100.00
2022-08-02T06:00:18.378Z,100.00
2022-08-02T06:05:24.029Z,100.00
2022-08-02T06:10:29.309Z,100.00
2022-08-02T06:15:33.074Z,100.00
2022-08-02T06:20:44.911Z,100.00
2022-08-02T06:25:51.838Z,100.00
2022-08-02T06:30:56.502Z,100.00
2022-08-02T06:36:10.030Z,100.00
2022-08-02T06:41:15.726Z,100.00
2022-08-02T06:46:34.444Z,100.00
2022-08-02T06:51:44.301Z,100.00
2022-08-02T06:56:47.833Z,100.00
2022-08-02T07:01:51.400Z,100.00
2022-08-02T07:06:57.356Z,100.00
2022-08-02T07:12:00.782Z,100.00
2022-08-02T07:17:04.680Z,100.00
2022-08-02T07:22:09.609Z,100.00
2022-08-02T07:27:13.687Z,100.00
2022-08-02T07:32:17.531Z,100.00
2022-08-02T07:37:52.998Z,100.00
2022-08-02T07:42:49.042Z,95.44
2022-08-02T07:47:53.553Z,91.10
2022-08-02T07:52:58.375Z,87.29
2022-08-02T07:58:01.806Z,81.96
2022-08-02T08:03:06.370Z,76.86
2022-08-02T08:08:16.902Z,75.49
2022-08-02T08:13:20.754Z,70.07
2022-08-02T08:18:24.385Z,63.45
2022-08-02T08:23:29.367Z,61.71
2022-08-02T08:28:32.825Z,58.37
2022-08-02T08:33:36.252Z,55.44
2022-08-02T08:38:41.052Z,52.38
2022-08-02T08:43:44.555Z,51.14
2022-08-02T08:48:50.756Z,52.53
2022-08-02T08:54:00.008Z,50.93
2022-08-02T08:59:05.454Z,50.53
2022-08-02T09:04:08.993Z,51.83
2022-08-02T09:09:13.852Z,52.20
2022-08-02T09:14:28.904Z,51.47
2022-08-02T09:19:33.427Z,52.28
2022-08-02T09:24:46.611Z,52.44
2022-08-02T09:30:11.760Z,50.75
2022-08-02T09:36:06.454Z,49.10
2022-08-02T09:40:57.732Z,51.47
2022-08-02T09:46:01.227Z,55.75
2022-08-02T09:51:04.924Z,58.56
2022-08-02T09:56:29.642Z,60.61
2022-08-02T10:01:37.342Z,62.04
2022-08-02T10:06:44.095Z,63.82
2022-08-02T10:11:49.806Z,65.90
2022-08-02T10:16:55.004Z,66.88
2022-08-02T10:22:02.387Z,64.70
2022-08-02T10:27:08.472Z,64.06
2022-08-02T10:32:17.946Z,64.09
2022-08-02T10:37:24.130Z,62.81
2022-08-02T10:42:54.147Z,62.70
2022-08-02T10:48:03.518Z,60.02
2022-08-02T10:53:26.818Z,57.68
2022-08-02T10:58:33.159Z,57.60
2022-08-02T11:03:40.762Z,56.91
2022-08-02T11:08:44.538Z,56.08
2022-08-02T11:14:07.114Z,52.97
2022-08-02T11:19:11.920Z,50.53
2022-08-02T11:24:30.331Z,49.71
2022-08-02T11:29:38.581Z,49.58
2022-08-02T11:34:44.169Z,48.21
2022-08-02T11:39:51.735Z,48.03
2022-08-02T11:44:57.338Z,46.72
2022-08-02T11:50:07.811Z,46.66
2022-08-02T11:55:12.165Z,45.44
2022-08-02T12:00:19.165Z,43.00
2022-08-02T12:05:39.113Z,45.05
2022-08-02T12:10:48.557Z,44.18
2022-08-02T12:15:53.407Z,44.82
2022-08-02T12:20:57.132Z,43.19
2022-08-02T12:26:02.084Z,42.83
2022-08-02T12:31:08.408Z,40.62
2022-08-02T12:36:16.596Z,41.96
2022-08-02T12:41:31.405Z,42.86
2022-08-02T12:46:42.047Z,42.92
2022-08-02T12:51:50.827Z,41.51
2022-08-02T12:57:11.333Z,38.40
2022-08-02T13:02:16.947Z,39.44
2022-08-02T13:07:21.109Z,40.41
2022-08-02T13:12:24.601Z,40.08
2022-08-02T13:17:29.521Z,38.46
2022-08-02T13:22:33.129Z,39.02
2022-08-02T13:27:37.975Z,37.66
2022-08-02T13:32:42.923Z,37.41
2022-08-02T13:37:47.790Z,38.74
2022-08-02T13:42:51.354Z,38.05
2022-08-02T13:48:04.057Z,37.86
2022-08-02T13:53:09.159Z,38.01
2022-08-02T13:58:12.617Z,37.38
2022-08-02T14:03:17.563Z,36.98
2022-08-02T14:08:22.861Z,37.31
2022-08-02T14:13:26.421Z,37.47
2022-08-02T14:18:31.325Z,37.22
2022-08-02T14:23:49.406Z,38.64
2022-08-02T14:28:53.918Z,37.28
2022-08-02T14:33:58.894Z,37.50
2022-08-02T14:39:02.668Z,37.54
2022-08-02T14:44:07.280Z,37.51
2022-08-02T14:49:14.369Z,37.16
2022-08-02T14:54:19.591Z,38.74
2022-08-02T14:59:23.163Z,39.02
2022-08-02T15:04:28.492Z,39.46
2022-08-02T15:09:39.717Z,39.05
2022-08-02T15:14:43.947Z,39.32
2022-08-02T15:19:57.720Z,39.49
2022-08-02T15:25:05.009Z,39.55
2022-08-02T15:30:19.239Z,40.62
2022-08-02T15:35:24.009Z,39.67
2022-08-02T15:40:27.805Z,40.37
2022-08-02T15:45:31.337Z,40.36
2022-08-02T15:50:36.218Z,40.10
2022-08-02T15:55:52.735Z,40.82
2022-08-02T16:01:03.325Z,41.04
2022-08-02T16:06:08.216Z,41.19
2022-08-02T16:11:12.524Z,41.24
2022-08-02T16:16:15.946Z,41.78
2022-08-02T16:21:20.861Z,41.81
2022-08-02T16:26:26.341Z,42.48
2022-08-02T16:31:29.828Z,43.58
2022-08-02T16:36:34.644Z,43.71
2022-08-02T16:41:50.741Z,43.66
2022-08-02T16:46:56.200Z,44.03
2022-08-02T16:52:01.084Z,43.99
2022-08-02T16:57:05.073Z,44.41
2022-08-02T17:02:12.014Z,44.28
2022-08-02T17:08:08.184Z,45.94
2022-08-02T17:12:46.974Z,47.39
2022-08-02T17:17:55.067Z,47.85
2022-08-02T17:23:00.697Z,47.65
2022-08-02T17:28:04.426Z,48.94
2022-08-02T17:33:07.891Z,49.69
2022-08-02T17:38:17.856Z,49.74
2022-08-02T17:43:21.829Z,49.73
2022-08-02T17:48:29.301Z,51.99
2022-08-02T17:53:41.765Z,53.36
2022-08-02T17:58:52.031Z,54.61
2022-08-02T18:03:57.580Z,57.43
2022-08-02T18:09:03.026Z,60.44
2022-08-02T18:14:08.986Z,59.91
2022-08-02T18:24:38.086Z,65.68
2022-08-02T18:29:41.726Z,68.46
2022-08-02T18:34:47.742Z,68.61
2022-08-02T18:39:52.812Z,71.44
2022-08-02T18:44:56.357Z,71.75
2022-08-02T18:50:00.481Z,73.39
2022-08-02T18:55:17.178Z,77.41
2022-08-02T19:00:25.722Z,81.04
2022-08-02T19:05:52.197Z,83.73
2022-08-02T19:10:56.463Z,86.97
2022-08-02T19:16:01.009Z,90.68
2022-08-02T19:21:05.607Z,92.93
2022-08-02T19:26:12.356Z,96.83
2022-08-02T19:31:18.780Z,98.65
2022-08-02T19:36:22.983Z,99.22
2022-08-02T19:41:44.000Z,100.00
2022-08-02T19:46:50.461Z,100.00
2022-08-02T19:51:55.825Z,100.00
2022-08-02T19:57:00.778Z,100.00
2022-08-02T20:02:04.253Z,100.00
2022-08-02T20:07:08.070Z,100.00
2022-08-02T20:12:14.170Z,100.00
2022-08-02T20:17:20.700Z,100.00
2022-08-02T20:22:24.618Z,100.00
2022-08-02T20:27:30.274Z,100.00
2022-08-02T20:32:33.792Z,100.00
2022-08-02T20:38:00.849Z,100.00
2022-08-02T20:43:02.659Z,100.00
2022-08-02T20:48:07.154Z,100.00
2022-08-02T20:53:23.486Z,100.00
2022-08-02T21:03:58.601Z,100.00
2022-08-02T21:09:02.484Z,100.00
2022-08-02T21:14:10.707Z,100.00
2022-08-02T21:19:15.982Z,100.00
2022-08-02T21:24:19.551Z,100.00
2022-08-02T21:29:29.441Z,100.00
2022-08-02T21:34:36.942Z,100.00
2022-08-02T21:39:40.583Z,100.00
2022-08-02T21:44:47.348Z,100.00
2022-08-02T21:50:12.886Z,100.00
2022-08-02T21:55:21.241Z,100.00
2022-08-02T22:00:29.467Z,100.00
2022-08-02T22:05:37.234Z,100.00
2022-08-02T22:10:54.860Z,100.00
2022-08-02T22:16:00.172Z,100.00
2022-08-02T22:21:14.357Z,100.00
2022-08-02T22:26:20.146Z,100.00
2022-08-02T22:31:41.196Z,100.00
2022-08-02T22:36:45.441Z,100.00
2022-08-02T22:42:02.447Z,100.00
2022-08-02T22:47:14.504Z,100.00
2022-08-02T22:52:20.242Z,100.00
2022-08-02T22:57:30.585Z,100.00
2022-08-02T22:58:43.841Z,63.21
2022-08-02T22:59:06.083Z,100.00
2022-08-02T23:02:36.558Z,100.00
2022-08-02T23:07:41.822Z,100.00
2022-08-02T23:12:45.305Z,100.00
2022-08-02T23:18:07.481Z,100.00
2022-08-02T23:23:11.785Z,100.00
2022-08-02T23:28:15.510Z,100.00
2022-08-02T23:33:20.348Z,100.00
2022-08-02T23:38:23.852Z,100.00
2022-08-02T23:43:27.339Z,100.00
2022-08-02T23:48:32.220Z,100.00
2022-08-02T23:53:35.962Z,100.00
2022-08-02T23:58:41.893Z,100.00
